sensor_id;sensor_type;location;lat;lon;timestamp;P1;durP1;ratioP1;P2;durP2;ratioP2
37199;SDS011;23096;50.892;16.746;2024-02-14T12:26:13;4.70;;;2.10;;
37199;SDS011;23096;50.892;16.746;2024-02-14T12:28:45;8.20;;;2.80;;
37199;SDS011;23096;50.892;16.746;2024-02-14T12:31:11;5.20;;;2.30;;
37199;SDS011;23096;50.892;16.746;2024-02-14T12:33:37;5.90;;;3.10;;
37199;SDS011;23096;50.892;16.746;2024-02-14T12:36:03;6.90;;;2.60;;
37199;SDS011;23096;50.892;16.746;2024-02-14T12:38:29;4.70;;;2.80;;
37199;SDS011;23096;50.892;16.746;2024-02-14T12:40:55;5.40;;;3.10;;
37199;SDS011;23096;50.892;16.746;2024-02-14T12:43:20;6.60;;;2.80;;
37199;SDS011;23096;50.892;16.746;2024-02-14T12:45:46;9.00;;;2.70;;
37199;SDS011;23096;50.892;16.746;2024-02-14T12:48:12;4.00;;;2.30;;
37199;SDS011;23096;50.892;16.746;2024-02-14T12:50:40;7.00;;;2.30;;
37199;SDS011;23096;50.892;16.746;2024-02-14T12:53:12;5.00;;;3.00;;
37199;SDS011;23096;50.892;16.746;2024-02-14T12:55:38;6.10;;;3.40;;
37199;SDS011;23096;50.892;16.746;2024-02-14T12:58:04;6.20;;;3.10;;
37199;SDS011;23096;50.892;16.746;2024-02-14T13:00:33;8.00;;;3.70;;
37199;SDS011;23096;50.892;16.746;2024-02-14T13:02:59;4.70;;;2.90;;
37199;SDS011;23096;50.892;16.746;2024-02-14T13:05:26;5.60;;;3.00;;
37199;SDS011;23096;50.892;16.746;2024-02-14T13:07:52;7.80;;;3.10;;
37199;SDS011;23096;50.892;16.746;2024-02-14T13:10:18;6.70;;;2.70;;
37199;SDS011;23096;50.892;16.746;2024-02-14T13:12:43;4.80;;;2.90;;
37199;SDS011;23096;50.892;16.746;2024-02-14T13:15:10;8.60;;;3.50;;
37199;SDS011;23096;50.892;16.746;2024-02-14T13:17:36;6.60;;;3.30;;
37199;SDS011;23096;50.892;16.746;2024-02-14T13:20:02;9.50;;;3.70;;
37199;SDS011;23096;50.892;16.746;2024-02-14T13:22:29;7.10;;;2.60;;
37199;SDS011;23096;50.892;16.746;2024-02-14T13:24:55;6.50;;;3.30;;
37199;SDS011;23096;50.892;16.746;2024-02-14T13:27:21;11.40;;;3.80;;
37199;SDS011;23096;50.892;16.746;2024-02-14T13:29:48;7.10;;;3.00;;
37199;SDS011;23096;50.892;16.746;2024-02-14T13:32:15;8.20;;;4.40;;
37199;SDS011;23096;50.892;16.746;2024-02-14T13:34:42;12.00;;;6.20;;
37199;SDS011;23096;50.892;16.746;2024-02-14T13:37:09;6.80;;;3.80;;
37199;SDS011;23096;50.892;16.746;2024-02-14T13:39:35;4.00;;;2.40;;
37199;SDS011;23096;50.892;16.746;2024-02-14T13:42:00;9.90;;;3.60;;
37199;SDS011;23096;50.892;16.746;2024-02-14T13:44:26;6.10;;;3.30;;
37199;SDS011;23096;50.892;16.746;2024-02-14T13:46:52;4.60;;;2.50;;
37199;SDS011;23096;50.892;16.746;2024-02-14T13:49:18;5.40;;;1.90;;
37199;SDS011;23096;50.892;16.746;2024-02-14T13:51:49;4.60;;;2.00;;
37199;SDS011;23096;50.892;16.746;2024-02-14T13:54:16;5.00;;;2.00;;
37199;SDS011;23096;50.892;16.746;2024-02-14T13:56:45;5.90;;;1.90;;
37199;SDS011;23096;50.892;16.746;2024-02-14T13:59:13;6.20;;;2.20;;
37199;SDS011;23096;50.892;16.746;2024-02-14T14:01:39;4.50;;;3.20;;
37199;SDS011;23096;50.892;16.746;2024-02-14T14:04:06;7.60;;;2.90;;
37199;SDS011;23096;50.892;16.746;2024-02-14T14:06:31;5.00;;;2.20;;
37199;SDS011;23096;50.892;16.746;2024-02-14T14:08:57;5.70;;;2.30;;
37199;SDS011;23096;50.892;16.746;2024-02-14T14:11:24;4.00;;;2.00;;
37199;SDS011;23096;50.892;16.746;2024-02-14T14:13:50;3.40;;;2.00;;
37199;SDS011;23096;50.892;16.746;2024-02-14T14:16:15;9.10;;;2.60;;
37199;SDS011;23096;50.892;16.746;2024-02-14T14:18:41;6.30;;;2.30;;
37199;SDS011;23096;50.892;16.746;2024-02-14T14:21:06;6.60;;;3.40;;
37199;SDS011;23096;50.892;16.746;2024-02-14T14:23:32;5.00;;;2.40;;
37199;SDS011;23096;50.892;16.746;2024-02-14T14:25:58;8.00;;;3.00;;
37199;SDS011;23096;50.892;16.746;2024-02-14T14:28:25;3.40;;;2.20;;
37199;SDS011;23096;50.892;16.746;2024-02-14T14:30:51;5.50;;;3.10;;
37199;SDS011;23096;50.892;16.746;2024-02-14T14:33:19;9.10;;;2.80;;
37199;SDS011;23096;50.892;16.746;2024-02-14T14:35:45;6.80;;;3.40;;
37199;SDS011;23096;50.892;16.746;2024-02-14T14:38:11;5.60;;;3.00;;
37199;SDS011;23096;50.892;16.746;2024-02-14T14:40:36;8.30;;;2.90;;
37199;SDS011;23096;50.892;16.746;2024-02-14T14:43:03;6.00;;;2.80;;
37199;SDS011;23096;50.892;16.746;2024-02-14T14:45:30;4.60;;;2.70;;
37199;SDS011;23096;50.892;16.746;2024-02-14T14:47:56;8.70;;;2.90;;
37199;SDS011;23096;50.892;16.746;2024-02-14T14:50:21;10.40;;;4.40;;
37199;SDS011;23096;50.892;16.746;2024-02-14T14:52:47;7.10;;;3.30;;
37199;SDS011;23096;50.892;16.746;2024-02-14T14:55:13;5.30;;;3.30;;
37199;SDS011;23096;50.892;16.746;2024-02-14T14:57:38;5.00;;;2.40;;
37199;SDS011;23096;50.892;16.746;2024-02-14T15:02:35;5.20;;;2.90;;
37199;SDS011;23096;50.892;16.746;2024-02-14T15:05:04;5.90;;;2.60;;
37199;SDS011;23096;50.892;16.746;2024-02-14T15:07:30;7.10;;;2.60;;
37199;SDS011;23096;50.892;16.746;2024-02-14T15:09:55;5.10;;;2.80;;
37199;SDS011;23096;50.892;16.746;2024-02-14T15:12:21;6.40;;;3.10;;
37199;SDS011;23096;50.892;16.746;2024-02-14T15:14:52;5.70;;;2.90;;
37199;SDS011;23096;50.892;16.746;2024-02-14T15:17:18;7.30;;;3.50;;
37199;SDS011;23096;50.892;16.746;2024-02-14T15:19:45;6.90;;;3.30;;
37199;SDS011;23096;50.892;16.746;2024-02-14T15:22:11;6.60;;;3.20;;
37199;SDS011;23096;50.892;16.746;2024-02-14T15:24:36;5.70;;;2.80;;
37199;SDS011;23096;50.892;16.746;2024-02-14T15:27:04;6.60;;;3.90;;
37199;SDS011;23096;50.892;16.746;2024-02-14T15:29:30;5.20;;;2.80;;
37199;SDS011;23096;50.892;16.746;2024-02-14T15:32:15;5.70;;;3.10;;
37199;SDS011;23096;50.892;16.746;2024-02-14T15:34:59;5.50;;;3.20;;
37199;SDS011;23096;50.892;16.746;2024-02-14T15:37:25;6.00;;;3.50;;
37199;SDS011;23096;50.892;16.746;2024-02-14T15:39:51;3.90;;;3.50;;
37199;SDS011;23096;50.892;16.746;2024-02-14T15:42:17;11.40;;;3.80;;
37199;SDS011;23096;50.892;16.746;2024-02-14T15:44:43;5.70;;;3.30;;
37199;SDS011;23096;50.892;16.746;2024-02-14T15:47:09;5.30;;;3.10;;
37199;SDS011;23096;50.892;16.746;2024-02-14T15:49:35;5.10;;;3.40;;
37199;SDS011;23096;50.892;16.746;2024-02-14T15:52:01;11.30;;;4.60;;
37199;SDS011;23096;50.892;16.746;2024-02-14T15:54:27;12.50;;;4.20;;
37199;SDS011;23096;50.892;16.746;2024-02-14T15:56:53;7.80;;;3.70;;
37199;SDS011;23096;50.892;16.746;2024-02-14T15:59:19;6.20;;;3.70;;
37199;SDS011;23096;50.892;16.746;2024-02-14T16:01:44;10.20;;;4.00;;
37199;SDS011;23096;50.892;16.746;2024-02-14T16:04:10;8.00;;;3.70;;
37199;SDS011;23096;50.892;16.746;2024-02-14T16:06:35;6.40;;;4.00;;
37199;SDS011;23096;50.892;16.746;2024-02-14T16:09:01;8.80;;;4.50;;
37199;SDS011;23096;50.892;16.746;2024-02-14T16:11:31;6.50;;;3.90;;
37199;SDS011;23096;50.892;16.746;2024-02-14T16:13:57;6.30;;;3.60;;
37199;SDS011;23096;50.892;16.746;2024-02-14T16:16:24;8.70;;;4.80;;
37199;SDS011;23096;50.892;16.746;2024-02-14T16:18:50;5.60;;;3.80;;
37199;SDS011;23096;50.892;16.746;2024-02-14T16:21:15;8.30;;;5.00;;
37199;SDS011;23096;50.892;16.746;2024-02-14T16:23:42;9.60;;;4.10;;
37199;SDS011;23096;50.892;16.746;2024-02-14T16:26:07;9.00;;;4.50;;
37199;SDS011;23096;50.892;16.746;2024-02-14T16:28:33;7.10;;;4.60;;
37199;SDS011;23096;50.892;16.746;2024-02-14T16:30:59;8.60;;;4.80;;
37199;SDS011;23096;50.892;16.746;2024-02-14T16:33:24;10.30;;;5.20;;
37199;SDS011;23096;50.892;16.746;2024-02-14T16:35:50;10.30;;;5.70;;
37199;SDS011;23096;50.892;16.746;2024-02-14T16:38:15;8.60;;;5.50;;
37199;SDS011;23096;50.892;16.746;2024-02-14T16:40:41;9.70;;;5.10;;
37199;SDS011;23096;50.892;16.746;2024-02-14T16:43:07;14.70;;;6.10;;
37199;SDS011;23096;50.892;16.746;2024-02-14T16:45:35;8.10;;;5.00;;
37199;SDS011;23096;50.892;16.746;2024-02-14T16:48:01;8.10;;;5.20;;
37199;SDS011;23096;50.892;16.746;2024-02-14T16:50:28;12.80;;;5.00;;
37199;SDS011;23096;50.892;16.746;2024-02-14T16:52:56;11.20;;;5.70;;
37199;SDS011;23096;50.892;16.746;2024-02-14T16:55:22;8.80;;;5.10;;
37199;SDS011;23096;50.892;16.746;2024-02-14T16:57:48;6.20;;;4.60;;
37199;SDS011;23096;50.892;16.746;2024-02-14T17:00:13;11.70;;;5.50;;
37199;SDS011;23096;50.892;16.746;2024-02-14T17:02:39;8.70;;;5.40;;
37199;SDS011;23096;50.892;16.746;2024-02-14T17:05:05;7.90;;;4.90;;
37199;SDS011;23096;50.892;16.746;2024-02-14T17:07:31;11.60;;;5.40;;
37199;SDS011;23096;50.892;16.746;2024-02-14T17:09:56;9.20;;;5.80;;
37199;SDS011;23096;50.892;16.746;2024-02-14T17:12:24;10.40;;;5.60;;
37199;SDS011;23096;50.892;16.746;2024-02-14T17:14:50;7.60;;;5.00;;
37199;SDS011;23096;50.892;16.746;2024-02-14T17:17:15;12.60;;;6.20;;
37199;SDS011;23096;50.892;16.746;2024-02-14T17:19:42;9.30;;;5.10;;
37199;SDS011;23096;50.892;16.746;2024-02-14T17:22:07;10.50;;;5.70;;
37199;SDS011;23096;50.892;16.746;2024-02-14T17:24:37;11.40;;;6.50;;
37199;SDS011;23096;50.892;16.746;2024-02-14T17:27:04;9.50;;;5.40;;
37199;SDS011;23096;50.892;16.746;2024-02-14T17:29:30;10.60;;;5.10;;
37199;SDS011;23096;50.892;16.746;2024-02-14T17:31:57;6.80;;;4.60;;
37199;SDS011;23096;50.892;16.746;2024-02-14T17:34:22;10.90;;;6.10;;
37199;SDS011;23096;50.892;16.746;2024-02-14T17:36:51;12.80;;;6.20;;
37199;SDS011;23096;50.892;16.746;2024-02-14T17:39:17;8.90;;;5.20;;
37199;SDS011;23096;50.892;16.746;2024-02-14T17:41:43;11.50;;;5.30;;
37199;SDS011;23096;50.892;16.746;2024-02-14T17:44:10;7.70;;;5.00;;
37199;SDS011;23096;50.892;16.746;2024-02-14T17:46:37;10.70;;;5.30;;
37199;SDS011;23096;50.892;16.746;2024-02-14T17:49:02;10.70;;;5.20;;
37199;SDS011;23096;50.892;16.746;2024-02-14T17:51:28;12.00;;;5.10;;
37199;SDS011;23096;50.892;16.746;2024-02-14T17:53:54;8.00;;;4.80;;
37199;SDS011;23096;50.892;16.746;2024-02-14T17:56:20;9.20;;;5.20;;
37199;SDS011;23096;50.892;16.746;2024-02-14T17:58:46;14.80;;;7.30;;
37199;SDS011;23096;50.892;16.746;2024-02-14T18:01:12;10.50;;;5.60;;
37199;SDS011;23096;50.892;16.746;2024-02-14T18:03:38;10.00;;;4.90;;
37199;SDS011;23096;50.892;16.746;2024-02-14T18:06:03;9.50;;;6.00;;
37199;SDS011;23096;50.892;16.746;2024-02-14T18:08:29;30.90;;;21.70;;
37199;SDS011;23096;50.892;16.746;2024-02-14T18:10:55;18.30;;;11.00;;
37199;SDS011;23096;50.892;16.746;2024-02-14T18:13:20;11.80;;;7.60;;
37199;SDS011;23096;50.892;16.746;2024-02-14T18:15:46;10.60;;;6.70;;
37199;SDS011;23096;50.892;16.746;2024-02-14T18:18:14;10.20;;;5.40;;
37199;SDS011;23096;50.892;16.746;2024-02-14T18:20:39;12.10;;;5.70;;
37199;SDS011;23096;50.892;16.746;2024-02-14T18:23:05;7.40;;;4.90;;
37199;SDS011;23096;50.892;16.746;2024-02-14T18:25:31;9.40;;;5.40;;
37199;SDS011;23096;50.892;16.746;2024-02-14T18:27:56;6.50;;;4.50;;
37199;SDS011;23096;50.892;16.746;2024-02-14T18:30:23;7.50;;;4.40;;
37199;SDS011;23096;50.892;16.746;2024-02-14T18:32:50;8.30;;;4.90;;
37199;SDS011;23096;50.892;16.746;2024-02-14T18:35:20;7.40;;;4.40;;
37199;SDS011;23096;50.892;16.746;2024-02-14T18:37:46;8.30;;;4.70;;
37199;SDS011;23096;50.892;16.746;2024-02-14T18:40:11;7.10;;;3.90;;
37199;SDS011;23096;50.892;16.746;2024-02-14T18:42:37;6.00;;;4.20;;
37199;SDS011;23096;50.892;16.746;2024-02-14T18:45:05;7.60;;;3.90;;
37199;SDS011;23096;50.892;16.746;2024-02-14T18:47:36;5.80;;;4.10;;
37199;SDS011;23096;50.892;16.746;2024-02-14T18:50:03;6.10;;;4.00;;
37199;SDS011;23096;50.892;16.746;2024-02-14T18:52:28;4.80;;;3.20;;
37199;SDS011;23096;50.892;16.746;2024-02-14T18:54:54;6.60;;;3.80;;
37199;SDS011;23096;50.892;16.746;2024-02-14T18:57:20;6.10;;;3.90;;
37199;SDS011;23096;50.892;16.746;2024-02-14T18:59:45;8.80;;;3.70;;
37199;SDS011;23096;50.892;16.746;2024-02-14T19:02:11;6.50;;;3.50;;
37199;SDS011;23096;50.892;16.746;2024-02-14T19:04:37;9.70;;;4.30;;
37199;SDS011;23096;50.892;16.746;2024-02-14T19:07:05;5.60;;;3.40;;
37199;SDS011;23096;50.892;16.746;2024-02-14T19:09:33;7.40;;;4.60;;
37199;SDS011;23096;50.892;16.746;2024-02-14T19:11:58;5.90;;;3.40;;
37199;SDS011;23096;50.892;16.746;2024-02-14T19:14:24;6.80;;;3.70;;
37199;SDS011;23096;50.892;16.746;2024-02-14T19:16:49;6.20;;;3.80;;
37199;SDS011;23096;50.892;16.746;2024-02-14T19:19:15;4.30;;;3.20;;
37199;SDS011;23096;50.892;16.746;2024-02-14T19:21:41;6.70;;;3.60;;
37199;SDS011;23096;50.892;16.746;2024-02-14T19:24:07;6.20;;;3.90;;
37199;SDS011;23096;50.892;16.746;2024-02-14T19:26:33;5.80;;;3.70;;
37199;SDS011;23096;50.892;16.746;2024-02-14T19:28:59;7.30;;;3.90;;
37199;SDS011;23096;50.892;16.746;2024-02-14T19:31:25;6.20;;;3.80;;
37199;SDS011;23096;50.892;16.746;2024-02-14T19:33:51;5.40;;;3.50;;
37199;SDS011;23096;50.892;16.746;2024-02-14T19:36:18;8.20;;;4.40;;
37199;SDS011;23096;50.892;16.746;2024-02-14T19:38:44;8.90;;;3.50;;
37199;SDS011;23096;50.892;16.746;2024-02-14T19:41:09;5.90;;;4.10;;
37199;SDS011;23096;50.892;16.746;2024-02-14T19:43:35;11.20;;;5.10;;
37199;SDS011;23096;50.892;16.746;2024-02-14T19:46:01;5.70;;;4.20;;
37199;SDS011;23096;50.892;16.746;2024-02-14T19:48:26;5.50;;;3.50;;
37199;SDS011;23096;50.892;16.746;2024-02-14T19:50:58;10.20;;;4.60;;
37199;SDS011;23096;50.892;16.746;2024-02-14T19:53:23;6.00;;;3.90;;
37199;SDS011;23096;50.892;16.746;2024-02-14T19:55:49;5.90;;;3.50;;
37199;SDS011;23096;50.892;16.746;2024-02-14T19:58:15;9.40;;;4.40;;
37199;SDS011;23096;50.892;16.746;2024-02-14T20:00:40;9.70;;;4.50;;
37199;SDS011;23096;50.892;16.746;2024-02-14T20:03:06;5.50;;;4.00;;
37199;SDS011;23096;50.892;16.746;2024-02-14T20:05:32;8.00;;;4.90;;
37199;SDS011;23096;50.892;16.746;2024-02-14T20:08:02;9.80;;;5.70;;
37199;SDS011;23096;50.892;16.746;2024-02-14T20:10:29;12.40;;;7.10;;
37199;SDS011;23096;50.892;16.746;2024-02-14T20:12:55;8.50;;;5.30;;
37199;SDS011;23096;50.892;16.746;2024-02-14T20:15:20;7.20;;;4.10;;
37199;SDS011;23096;50.892;16.746;2024-02-14T20:17:46;8.30;;;5.60;;
37199;SDS011;23096;50.892;16.746;2024-02-14T20:20:14;9.90;;;6.20;;
37199;SDS011;23096;50.892;16.746;2024-02-14T20:22:40;8.70;;;5.00;;
37199;SDS011;23096;50.892;16.746;2024-02-14T20:25:06;7.80;;;4.20;;
37199;SDS011;23096;50.892;16.746;2024-02-14T20:27:34;5.40;;;4.20;;
37199;SDS011;23096;50.892;16.746;2024-02-14T20:30:00;12.00;;;4.80;;
37199;SDS011;23096;50.892;16.746;2024-02-14T20:32:27;6.10;;;3.90;;
37199;SDS011;23096;50.892;16.746;2024-02-14T20:34:54;5.90;;;4.00;;
37199;SDS011;23096;50.892;16.746;2024-02-14T20:37:19;8.40;;;3.70;;
37199;SDS011;23096;50.892;16.746;2024-02-14T20:39:46;5.90;;;3.60;;
37199;SDS011;23096;50.892;16.746;2024-02-14T20:42:12;8.00;;;4.10;;
37199;SDS011;23096;50.892;16.746;2024-02-14T20:44:39;6.60;;;3.70;;
37199;SDS011;23096;50.892;16.746;2024-02-14T20:47:05;7.60;;;4.50;;
37199;SDS011;23096;50.892;16.746;2024-02-14T20:49:31;6.80;;;3.90;;
37199;SDS011;23096;50.892;16.746;2024-02-14T20:51:57;7.30;;;4.30;;
37199;SDS011;23096;50.892;16.746;2024-02-14T20:54:22;7.60;;;3.90;;
37199;SDS011;23096;50.892;16.746;2024-02-14T20:56:48;8.60;;;4.60;;
37199;SDS011;23096;50.892;16.746;2024-02-14T20:59:14;5.80;;;4.40;;
37199;SDS011;23096;50.892;16.746;2024-02-14T21:01:40;6.20;;;4.00;;
37199;SDS011;23096;50.892;16.746;2024-02-14T21:04:05;11.10;;;4.00;;
37199;SDS011;23096;50.892;16.746;2024-02-14T21:06:31;6.40;;;4.00;;
37199;SDS011;23096;50.892;16.746;2024-02-14T21:08:56;7.60;;;3.70;;
37199;SDS011;23096;50.892;16.746;2024-02-14T21:11:23;4.50;;;3.50;;
37199;SDS011;23096;50.892;16.746;2024-02-14T21:13:49;4.10;;;2.90;;
37199;SDS011;23096;50.892;16.746;2024-02-14T21:16:15;6.30;;;3.90;;
37199;SDS011;23096;50.892;16.746;2024-02-14T21:18:40;6.40;;;4.10;;
37199;SDS011;23096;50.892;16.746;2024-02-14T21:21:06;5.60;;;3.70;;
37199;SDS011;23096;50.892;16.746;2024-02-14T21:23:31;6.60;;;3.60;;
37199;SDS011;23096;50.892;16.746;2024-02-14T21:25:57;8.50;;;3.60;;
37199;SDS011;23096;50.892;16.746;2024-02-14T21:28:22;7.80;;;3.80;;
37199;SDS011;23096;50.892;16.746;2024-02-14T21:30:48;5.10;;;3.10;;
37199;SDS011;23096;50.892;16.746;2024-02-14T21:33:13;5.30;;;3.10;;
37199;SDS011;23096;50.892;16.746;2024-02-14T21:35:39;4.70;;;3.30;;
37199;SDS011;23096;50.892;16.746;2024-02-14T21:38:05;5.80;;;3.10;;
37199;SDS011;23096;50.892;16.746;2024-02-14T21:40:31;5.30;;;3.10;;
37199;SDS011;23096;50.892;16.746;2024-02-14T21:42:57;3.50;;;2.30;;
37199;SDS011;23096;50.892;16.746;2024-02-14T21:45:23;3.30;;;2.40;;
37199;SDS011;23096;50.892;16.746;2024-02-14T21:47:52;7.30;;;2.90;;
37199;SDS011;23096;50.892;16.746;2024-02-14T21:50:19;7.90;;;2.60;;
37199;SDS011;23096;50.892;16.746;2024-02-14T21:52:44;3.40;;;2.20;;
37199;SDS011;23096;50.892;16.746;2024-02-14T21:55:10;3.90;;;2.50;;
37199;SDS011;23096;50.892;16.746;2024-02-14T21:57:36;3.50;;;2.70;;
37199;SDS011;23096;50.892;16.746;2024-02-14T22:00:02;5.70;;;3.40;;
37199;SDS011;23096;50.892;16.746;2024-02-14T22:02:38;2.80;;;2.40;;
37199;SDS011;23096;50.892;16.746;2024-02-14T22:05:04;4.00;;;2.70;;
37199;SDS011;23096;50.892;16.746;2024-02-14T22:07:30;4.70;;;3.00;;
37199;SDS011;23096;50.892;16.746;2024-02-14T22:09:57;5.10;;;3.20;;
37199;SDS011;23096;50.892;16.746;2024-02-14T22:12:23;4.60;;;3.10;;
37199;SDS011;23096;50.892;16.746;2024-02-14T22:14:49;5.00;;;3.80;;
37199;SDS011;23096;50.892;16.746;2024-02-14T22:17:17;7.20;;;4.20;;
37199;SDS011;23096;50.892;16.746;2024-02-14T22:19:43;8.40;;;4.90;;
37199;SDS011;23096;50.892;16.746;2024-02-14T22:22:09;4.50;;;3.40;;
37199;SDS011;23096;50.892;16.746;2024-02-14T22:24:38;5.00;;;4.00;;
37199;SDS011;23096;50.892;16.746;2024-02-14T22:27:04;8.40;;;5.20;;
37199;SDS011;23096;50.892;16.746;2024-02-14T22:29:31;7.40;;;4.40;;
37199;SDS011;23096;50.892;16.746;2024-02-14T22:31:57;7.70;;;4.40;;
37199;SDS011;23096;50.892;16.746;2024-02-14T22:34:22;6.10;;;4.50;;
37199;SDS011;23096;50.892;16.746;2024-02-14T22:36:48;7.00;;;4.10;;
37199;SDS011;23096;50.892;16.746;2024-02-14T22:39:13;4.80;;;3.40;;
37199;SDS011;23096;50.892;16.746;2024-02-14T22:41:40;5.10;;;3.80;;
37199;SDS011;23096;50.892;16.746;2024-02-14T22:44:06;6.50;;;3.80;;
37199;SDS011;23096;50.892;16.746;2024-02-14T22:46:36;6.90;;;4.80;;
37199;SDS011;23096;50.892;16.746;2024-02-14T22:49:03;6.30;;;4.60;;
37199;SDS011;23096;50.892;16.746;2024-02-14T22:51:29;5.70;;;4.20;;
37199;SDS011;23096;50.892;16.746;2024-02-14T22:53:55;5.70;;;3.90;;
37199;SDS011;23096;50.892;16.746;2024-02-14T22:56:21;8.90;;;4.70;;
37199;SDS011;23096;50.892;16.746;2024-02-14T22:58:46;6.10;;;4.20;;
37199;SDS011;23096;50.892;16.746;2024-02-14T23:01:12;4.90;;;3.90;;
37199;SDS011;23096;50.892;16.746;2024-02-14T23:03:38;5.40;;;4.20;;
37199;SDS011;23096;50.892;16.746;2024-02-14T23:06:05;4.70;;;3.80;;
37199;SDS011;23096;50.892;16.746;2024-02-14T23:08:31;3.90;;;3.10;;
37199;SDS011;23096;50.892;16.746;2024-02-14T23:10:56;4.90;;;2.90;;
37199;SDS011;23096;50.892;16.746;2024-02-14T23:16:21;5.90;;;2.80;;
37199;SDS011;23096;50.892;16.746;2024-02-14T23:18:47;3.90;;;2.60;;
37199;SDS011;23096;50.892;16.746;2024-02-14T23:21:12;2.70;;;2.30;;
37199;SDS011;23096;50.892;16.746;2024-02-14T23:23:38;3.40;;;2.70;;
37199;SDS011;23096;50.892;16.746;2024-02-14T23:26:05;3.80;;;2.80;;
37199;SDS011;23096;50.892;16.746;2024-02-14T23:28:31;3.80;;;2.50;;
37199;SDS011;23096;50.892;16.746;2024-02-14T23:30:56;3.50;;;2.70;;
37199;SDS011;23096;50.892;16.746;2024-02-14T23:33:22;3.70;;;3.10;;
37199;SDS011;23096;50.892;16.746;2024-02-14T23:35:48;4.40;;;2.90;;
37199;SDS011;23096;50.892;16.746;2024-02-14T23:38:13;3.70;;;2.60;;
37199;SDS011;23096;50.892;16.746;2024-02-14T23:40:39;3.80;;;2.80;;
37199;SDS011;23096;50.892;16.746;2024-02-14T23:43:05;4.80;;;2.70;;
37199;SDS011;23096;50.892;16.746;2024-02-14T23:45:31;2.90;;;2.20;;
37199;SDS011;23096;50.892;16.746;2024-02-14T23:47:57;3.40;;;2.80;;
37199;SDS011;23096;50.892;16.746;2024-02-14T23:50:23;4.80;;;2.70;;
37199;SDS011;23096;50.892;16.746;2024-02-14T23:52:53;4.50;;;2.40;;
37199;SDS011;23096;50.892;16.746;2024-02-14T23:55:19;3.10;;;2.30;;
37199;SDS011;23096;50.892;16.746;2024-02-14T23:57:46;5.20;;;2.60;;
